Time;durP1;ratioP1;P1;durP2;ratioP2;P2;SDS_P1;SDS_P2;PMS_P1;PMS_P2;Temp;Humidity;BMP_temperature;BMP_pressure;BME280_temperature;BME280_humidity;BME280_pressure;Samples;Min_cycle;Max_cycle;Signal;HPM_P1;HPM_P2
2023/10/24 00:02:25;;;;;;;3.20;2.50;;;;;;;20.67;49.66;101717.20;106796;1262;25423;-68
2023/10/24 00:04:52;;;;;;;2.50;2.10;;;;;;;20.68;49.64;101719.59;106753;1262;25358;-68
2023/10/24 00:07:19;;;;;;;3.00;2.20;;;;;;;20.74;49.65;101715.41;106832;1262;25420;-69
2023/10/24 00:09:46;;;;;;;2.40;2.00;;;;;;;20.71;49.95;101720.65;106710;1262;25438;-69
2023/10/24 00:12:13;;;;;;;3.80;2.70;;;;;;;20.80;49.95;101714.08;106712;1262;25350;-67
2023/10/24 00:14:40;;;;;;;2.50;1.90;;;;;;;20.82;49.86;101719.27;106838;1262;25435;-75
2023/10/24 00:17:07;;;;;;;3.20;2.30;;;;;;;20.81;49.78;101719.46;106376;1267;22641;-68
2023/10/24 00:19:35;;;;;;;3.70;2.70;;;;;;;20.82;50.12;101715.91;106492;1272;25386;-68
2023/10/24 00:22:02;;;;;;;4.90;2.20;;;;;;;20.81;50.22;101718.08;106726;1262;25507;-72
2023/10/24 00:24:29;;;;;;;4.60;2.70;;;;;;;20.82;50.30;101721.22;106801;1262;25336;-75
2023/10/24 00:26:57;;;;;;;7.00;2.90;;;;;;;20.81;50.43;101715.39;106402;1272;25340;-69
2023/10/24 00:29:24;;;;;;;8.60;4.00;;;;;;;20.82;50.71;101712.38;106489;1262;386900;-67
2023/10/24 00:31:51;;;;;;;6.70;3.40;;;;;;;20.82;50.88;101710.79;106357;1267;23290;-70
2023/10/24 00:34:18;;;;;;;6.70;3.60;;;;;;;20.83;51.23;101711.98;106652;1261;22647;-67
2023/10/24 00:36:46;;;;;;;4.40;3.30;;;;;;;20.84;51.58;101703.13;106422;1262;25386;-68
2023/10/24 00:39:13;;;;;;;4.90;3.40;;;;;;;20.87;51.94;101703.86;106331;1262;25492;-67
2023/10/24 00:41:40;;;;;;;5.20;3.50;;;;;;;20.88;52.07;101708.36;106375;1262;25253;-66
2023/10/24 00:44:07;;;;;;;7.80;3.70;;;;;;;20.88;51.89;101709.41;106342;1262;25492;-67
2023/10/24 00:46:34;;;;;;;7.00;3.90;;;;;;;20.87;51.82;101707.55;106498;1262;25386;-68
2023/10/24 00:49:02;;;;;;;4.10;3.50;;;;;;;20.88;51.75;101708.20;106823;1262;23878;-69
2023/10/24 00:51:29;;;;;;;4.30;3.70;;;;;;;20.90;51.97;101711.99;106492;1265;25358;-67
2023/10/24 00:53:56;;;;;;;7.80;4.10;;;;;;;20.91;52.20;101709.46;106795;1261;24038;-68
2023/10/24 00:56:23;;;;;;;5.10;3.90;;;;;;;20.89;52.38;101710.08;106759;1272;25361;-65
2023/10/24 00:58:50;;;;;;;6.60;4.40;;;;;;;20.88;52.78;101710.52;106715;1271;25357;-70
2023/10/24 01:01:18;;;;;;;10.30;4.60;;;;;;;20.86;52.92;101710.80;106533;1268;25364;-67
2023/10/24 01:03:46;;;;;;;5.90;3.90;;;;;;;20.84;52.89;101711.56;106444;1279;25392;-66
2023/10/24 01:06:14;;;;;;;5.40;3.30;;;;;;;20.84;53.03;101711.39;106107;1268;22545;-67
2023/10/24 01:08:41;;;;;;;6.00;3.80;;;;;;;20.84;53.08;101709.64;106368;1281;25537;-68
2023/10/24 01:11:08;;;;;;;8.60;3.40;;;;;;;20.83;52.97;101713.38;106353;1275;25364;-70
2023/10/24 01:13:35;;;;;;;3.30;2.60;;;;;;;20.83;53.02;101717.10;105971;1277;25474;-67
2023/10/24 01:16:02;;;;;;;4.10;3.10;;;;;;;20.81;52.69;101712.77;106388;1271;25400;-69
2023/10/24 01:18:29;;;;;;;6.70;3.10;;;;;;;20.80;52.38;101714.27;106377;1265;22547;-68
2023/10/24 01:20:56;;;;;;;6.10;3.40;;;;;;;20.77;52.14;101710.19;106344;1275;25501;-70
2023/10/24 01:23:23;;;;;;;3.80;2.50;;;;;;;20.75;51.81;101709.89;106270;1274;25361;-67
2023/10/24 01:25:51;;;;;;;4.40;3.00;;;;;;;20.74;51.52;101706.60;106315;1268;25438;-69
2023/10/24 01:28:18;;;;;;;4.50;3.00;;;;;;;20.72;51.25;101703.70;106402;1268;25383;-69
2023/10/24 01:30:45;;;;;;;3.60;2.80;;;;;;;20.70;51.29;101701.86;106431;1265;22679;-68
2023/10/24 01:33:12;;;;;;;8.80;3.10;;;;;;;20.69;51.27;101695.21;106326;1265;22664;-70
2023/10/24 01:35:39;;;;;;;5.40;2.60;;;;;;;20.67;51.25;101695.31;106288;1272;23146;-72
2023/10/24 01:38:06;;;;;;;4.20;2.90;;;;;;;20.65;51.26;101689.09;106637;1275;24385;-67
2023/10/24 01:40:33;;;;;;;5.00;2.50;;;;;;;20.63;51.36;101692.15;106356;1279;25383;-67
2023/10/24 01:43:00;;;;;;;6.10;2.90;;;;;;;20.64;51.24;101694.94;106787;1268;23182;-69
2023/10/24 01:45:27;;;;;;;4.80;3.00;;;;;;;20.63;50.99;101692.14;106529;1272;25358;-70
2023/10/24 01:47:54;;;;;;;6.30;2.70;;;;;;;20.63;50.84;101692.68;106719;1263;25438;-69
2023/10/24 01:50:22;;;;;;;5.50;3.50;;;;;;;20.63;50.61;101690.02;106745;1267;25347;-69
2023/10/24 01:52:49;;;;;;;5.10;3.00;;;;;;;20.64;50.33;101687.20;105794;1274;1002887;-71
2023/10/24 01:55:16;;;;;;;4.50;2.90;;;;;;;20.64;50.04;101687.73;106792;1266;25378;-68
2023/10/24 01:57:43;;;;;;;3.90;2.70;;;;;;;20.62;49.80;101688.15;106795;1275;25380;-68
2023/10/24 02:00:11;;;;;;;5.40;3.00;;;;;;;20.60;49.51;101690.73;106331;1265;23876;-68
2023/10/24 02:02:40;;;;;;;3.40;2.70;;;;;;;20.57;48.99;101692.98;106806;1259;22534;-68
2023/10/24 02:05:09;;;;;;;3.80;2.80;;;;;;;20.54;48.87;101693.34;106774;1277;25350;-69
2023/10/24 02:07:36;;;;;;;6.90;3.10;;;;;;;20.52;48.87;101690.95;106734;1262;24247;-73
2023/10/24 02:10:05;;;;;;;3.40;2.90;;;;;;;20.49;48.74;101690.89;106775;1271;25510;-70
2023/10/24 02:12:32;;;;;;;4.80;2.60;;;;;;;20.48;48.65;101687.98;106774;1273;24257;-71
2023/10/24 02:14:59;;;;;;;7.20;3.30;;;;;;;20.47;48.49;101683.95;106377;1263;22532;-68
2023/10/24 02:17:26;;;;;;;4.90;2.60;;;;;;;20.47;48.31;101683.81;106517;1262;25351;-70
2023/10/24 02:19:53;;;;;;;5.40;2.90;;;;;;;20.46;48.25;101684.20;106288;1271;25429;-68
2023/10/24 02:22:20;;;;;;;4.80;2.90;;;;;;;20.44;48.40;101690.12;106427;1265;25358;-70
2023/10/24 02:24:49;;;;;;;4.10;2.80;;;;;;;20.41;48.48;101696.59;106802;1273;24232;-68
2023/10/24 02:27:17;;;;;;;4.70;2.80;;;;;;;20.39;48.47;101703.23;106371;1275;25365;-70
2023/10/24 02:29:44;;;;;;;5.20;3.30;;;;;;;20.35;48.51;101700.04;106443;1280;25425;-70
2023/10/24 02:32:11;;;;;;;3.50;2.70;;;;;;;20.32;48.56;101701.09;106799;1273;25350;-70
2023/10/24 02:34:39;;;;;;;3.50;2.50;;;;;;;20.30;48.70;101699.75;106706;1266;22516;-67
2023/10/24 02:37:06;;;;;;;2.80;2.50;;;;;;;20.30;48.76;101702.06;106350;1267;22587;-70
2023/10/24 02:39:33;;;;;;;2.80;2.50;;;;;;;20.29;48.78;101700.34;106805;1262;25363;-72
2023/10/24 02:42:02;;;;;;;3.00;2.50;;;;;;;20.29;48.78;101694.52;106355;1275;25404;-69
2023/10/24 02:44:29;;;;;;;3.60;2.60;;;;;;;20.29;48.80;101695.20;106732;1263;25435;-70
2023/10/24 02:46:56;;;;;;;3.20;2.40;;;;;;;20.29;48.53;101694.17;106802;1262;25350;-71
2023/10/24 02:49:23;;;;;;;3.50;2.90;;;;;;;20.27;48.43;101696.02;106715;1262;25416;-68
2023/10/24 02:51:50;;;;;;;3.00;2.70;;;;;;;20.25;48.54;101689.27;106801;1262;22559;-69
2023/10/24 02:54:17;;;;;;;3.70;3.10;;;;;;;20.24;48.49;101691.41;106828;1272;25358;-70
2023/10/24 02:56:45;;;;;;;6.20;2.80;;;;;;;20.24;48.53;101692.11;106748;1262;22547;-74
2023/10/24 02:59:12;;;;;;;4.00;2.90;;;;;;;20.23;48.64;101691.80;105961;1267;1003225;-71
2023/10/24 03:01:39;;;;;;;4.30;3.00;;;;;;;20.23;48.75;101698.52;106694;1272;24738;-75
2023/10/24 03:04:06;;;;;;;4.70;3.30;;;;;;;20.14;49.08;101701.02;106552;1272;24220;-69
2023/10/24 03:06:33;;;;;;;5.20;2.90;;;;;;;20.07;49.45;101701.70;106699;1262;25531;-69
2023/10/24 03:09:00;;;;;;;4.00;2.70;;;;;;;20.08;49.53;101697.44;106722;1262;25386;-69
2023/10/24 03:11:27;;;;;;;5.90;2.40;;;;;;;20.07;49.00;101696.23;106770;1266;25386;-73
2023/10/24 03:13:55;;;;;;;4.80;2.40;;;;;;;20.05;48.92;101694.56;106325;1278;25475;-69
2023/10/24 03:16:22;;;;;;;3.90;2.80;;;;;;;20.04;48.93;101701.50;106453;1269;25358;-71
2023/10/24 03:18:51;;;;;;;6.00;2.90;;;;;;;20.01;49.04;101700.73;106839;1261;22533;-69
2023/10/24 03:21:19;;;;;;;6.60;2.60;;;;;;;20.00;49.18;101700.63;106190;1276;22604;-69
2023/10/24 03:23:46;;;;;;;3.80;2.70;;;;;;;19.98;49.13;101696.11;106721;1265;25402;-75
2023/10/24 03:26:13;;;;;;;4.00;2.40;;;;;;;19.96;48.92;101702.02;105954;1263;1002534;-74
2023/10/24 03:28:40;;;;;;;3.80;2.20;;;;;;;19.91;48.77;101704.91;106770;1262;25374;-70
2023/10/24 03:31:08;;;;;;;2.80;2.20;;;;;;;19.85;48.38;101705.20;106853;1272;25533;-71
2023/10/24 03:33:37;;;;;;;3.40;2.40;;;;;;;19.70;48.38;101710.64;106465;1265;22534;-74
2023/10/24 03:36:03;;;;;;;2.70;2.10;;;;;;;19.66;48.50;101713.45;106507;1261;25386;-68
2023/10/24 03:38:31;;;;;;;3.00;2.70;;;;;;;19.76;48.11;101707.70;106315;1266;25370;-69
2023/10/24 03:40:58;;;;;;;3.60;2.70;;;;;;;19.76;48.17;101706.31;106393;1271;25351;-68
2023/10/24 03:43:25;;;;;;;4.30;2.50;;;;;;;19.85;48.07;101704.84;106736;1262;25347;-73
2023/10/24 03:45:52;;;;;;;4.50;3.10;;;;;;;19.85;48.30;101703.41;106735;1259;25546;-71
2023/10/24 03:48:19;;;;;;;4.10;2.40;;;;;;;19.84;48.32;101708.76;106834;1271;25361;-70
2023/10/24 03:50:46;;;;;;;3.50;2.50;;;;;;;19.83;48.53;101710.90;106738;1272;25435;-73
2023/10/24 03:53:13;;;;;;;3.80;2.60;;;;;;;19.82;48.73;101713.93;106367;1267;23161;-74
2023/10/24 03:55:41;;;;;;;3.20;2.90;;;;;;;19.82;48.74;101715.00;106560;1266;25365;-69
2023/10/24 03:58:08;;;;;;;3.80;2.70;;;;;;;19.83;48.74;101716.20;106421;1262;22552;-71
2023/10/24 04:00:36;;;;;;;3.50;2.70;;;;;;;19.82;48.88;101718.20;106380;1270;24374;-68
2023/10/24 04:03:03;;;;;;;3.70;3.00;;;;;;;19.81;49.04;101718.39;106230;1278;25382;-68
2023/10/24 04:05:33;;;;;;;3.80;3.20;;;;;;;19.81;49.08;101720.33;106503;1270;24406;-69
2023/10/24 04:08:02;;;;;;;3.70;3.00;;;;;;;19.79;48.80;101721.82;106531;1271;25385;-69
2023/10/24 04:10:29;;;;;;;3.10;2.70;;;;;;;19.77;48.68;101724.75;106763;1262;24302;-69
2023/10/24 04:12:56;;;;;;;5.90;2.90;;;;;;;19.75;48.72;101732.04;106666;1272;25507;-70
2023/10/24 04:15:23;;;;;;;3.20;2.90;;;;;;;19.74;49.03;101732.46;106657;1267;23152;-67
2023/10/24 04:17:51;;;;;;;3.30;3.00;;;;;;;19.74;49.28;101733.52;106862;1271;25365;-69
2023/10/24 04:20:18;;;;;;;3.60;2.90;;;;;;;19.74;49.47;101732.95;106717;1273;25365;-68
2023/10/24 04:22:48;;;;;;;4.90;3.10;;;;;;;19.74;49.48;101738.23;106730;1270;25386;-74
2023/10/24 04:25:15;;;;;;;5.30;3.20;;;;;;;19.75;49.56;101739.25;106609;1269;25287;-68
2023/10/24 04:27:42;;;;;;;3.70;2.90;;;;;;;19.77;49.55;101737.95;106774;1263;25358;-68
2023/10/24 04:30:10;;;;;;;3.50;2.90;;;;;;;19.78;49.51;101744.61;106752;1264;24441;-70
2023/10/24 04:32:37;;;;;;;6.00;3.70;;;;;;;19.79;49.60;101743.32;106716;1262;24279;-71
2023/10/24 04:35:05;;;;;;;3.40;3.00;;;;;;;19.79;49.23;101748.23;106871;1268;25347;-68
2023/10/24 04:37:32;;;;;;;5.30;3.10;;;;;;;19.78;49.20;101751.10;106767;1262;25296;-69
2023/10/24 04:39:59;;;;;;;3.60;3.20;;;;;;;19.78;49.18;101753.73;106770;1272;25365;-70
2023/10/24 04:42:26;;;;;;;4.00;3.20;;;;;;;19.80;49.22;101757.52;106328;1274;25511;-70
2023/10/24 04:44:54;;;;;;;5.20;3.60;;;;;;;19.82;49.21;101762.55;106717;1263;23908;-71
2023/10/24 04:47:21;;;;;;;4.30;3.30;;;;;;;19.86;49.04;101759.73;106730;1262;24278;-70
2023/10/24 04:49:48;;;;;;;3.00;2.70;;;;;;;19.90;48.86;101765.01;106866;1267;25409;-75
2023/10/24 04:52:15;;;;;;;3.40;3.10;;;;;;;19.90;48.72;101772.73;106685;1271;25382;-69
2023/10/24 04:54:42;;;;;;;3.60;3.20;;;;;;;19.89;48.60;101777.54;106762;1262;25358;-70
2023/10/24 04:57:09;;;;;;;5.30;3.80;;;;;;;19.89;48.72;101782.16;106792;1263;22572;-75
2023/10/24 04:59:37;;;;;;;4.20;3.40;;;;;;;19.88;48.89;101780.44;106764;1261;25340;-71
2023/10/24 05:02:04;;;;;;;5.60;3.60;;;;;;;19.86;48.83;101790.38;106832;1268;25361;-68
2023/10/24 05:04:31;;;;;;;3.90;3.00;;;;;;;19.85;48.93;101795.88;106742;1272;25508;-70
2023/10/24 05:06:58;;;;;;;6.70;3.10;;;;;;;19.86;48.83;101796.34;106717;1271;25311;-70
2023/10/24 05:09:25;;;;;;;3.50;3.00;;;;;;;19.88;48.83;101795.36;106684;1273;22571;-69
2023/10/24 05:11:52;;;;;;;3.90;3.30;;;;;;;19.91;48.81;101801.39;106741;1270;22655;-71
2023/10/24 05:14:19;;;;;;;4.30;3.00;;;;;;;19.96;48.64;101805.07;106765;1267;25396;-70
2023/10/24 05:16:46;;;;;;;3.00;2.70;;;;;;;20.02;48.57;101810.94;106543;1265;25539;-69
2023/10/24 05:19:13;;;;;;;4.30;3.20;;;;;;;20.07;48.39;101813.20;106514;1273;25376;-69
2023/10/24 05:21:40;;;;;;;3.20;2.80;;;;;;;20.08;48.27;101817.89;106693;1268;25376;-69
2023/10/24 05:24:07;;;;;;;3.20;2.90;;;;;;;19.97;48.45;101827.57;106781;1263;25358;-72
2023/10/24 05:26:34;;;;;;;3.60;2.70;;;;;;;19.88;48.74;101831.13;106787;1267;25252;-68
2023/10/24 05:29:02;;;;;;;5.00;3.10;;;;;;;19.88;48.97;101831.14;106724;1269;25518;-72
2023/10/24 05:31:29;;;;;;;2.90;2.60;;;;;;;19.87;48.83;101832.58;106757;1273;25386;-69
2023/10/24 05:33:57;;;;;;;3.20;2.70;;;;;;;19.89;48.73;101837.77;106370;1262;25351;-71
2023/10/24 05:36:24;;;;;;;4.10;2.70;;;;;;;19.91;48.67;101836.80;106404;1271;25375;-73
2023/10/24 05:38:50;;;;;;;3.80;2.90;;;;;;;19.94;48.65;101840.02;106639;1258;22535;-69
2023/10/24 05:41:17;;;;;;;3.90;2.60;;;;;;;19.97;48.71;101837.42;106833;1264;25399;-68
2023/10/24 05:43:44;;;;;;;4.40;2.80;;;;;;;20.02;48.71;101837.73;106693;1263;24419;-69
2023/10/24 05:46:12;;;;;;;4.70;2.90;;;;;;;20.21;48.27;101835.84;106775;1261;25386;-71
2023/10/24 05:48:40;;;;;;;3.60;3.00;;;;;;;20.29;48.09;101835.13;106679;1260;25412;-69
2023/10/24 05:51:09;;;;;;;3.50;3.20;;;;;;;20.33;47.92;101836.02;106515;1280;25438;-71
2023/10/24 05:53:36;;;;;;;5.00;3.10;;;;;;;20.37;47.58;101843.04;106770;1265;22540;-70
2023/10/24 05:56:03;;;;;;;4.40;3.50;;;;;;;20.38;47.35;101846.36;106305;1274;22617;-70
2023/10/24 05:58:30;;;;;;;4.70;3.50;;;;;;;20.38;47.27;101843.89;106349;1270;25394;-69
2023/10/24 06:00:57;;;;;;;5.80;3.00;;;;;;;20.39;47.03;101848.63;106578;1269;25375;-71
2023/10/24 06:03:26;;;;;;;4.70;3.10;;;;;;;20.37;47.08;101853.45;106749;1260;25375;-69
2023/10/24 06:05:53;;;;;;;5.30;2.90;;;;;;;20.39;46.98;101860.62;106818;1267;25350;-69
2023/10/24 06:08:20;;;;;;;3.50;3.10;;;;;;;20.40;46.82;101856.49;106598;1267;25437;-69
2023/10/24 06:10:55;;;;;;;4.10;3.30;;;;;;;20.38;46.78;101857.45;106403;1278;25438;-70
2023/10/24 06:13:22;;;;;;;3.90;3.30;;;;;;;20.40;46.59;101855.45;106517;1260;24206;-72
2023/10/24 06:15:49;;;;;;;4.30;3.20;;;;;;;20.41;46.56;101852.08;106456;1269;22573;-77
2023/10/24 06:18:17;;;;;;;4.60;3.60;;;;;;;20.40;46.57;101853.13;106424;1260;22526;-71
2023/10/24 06:20:44;;;;;;;6.20;3.90;;;;;;;20.42;46.39;101855.52;106159;1266;23115;-69
2023/10/24 06:23:11;;;;;;;5.10;3.70;;;;;;;20.44;46.27;101858.98;106393;1263;25376;-69
2023/10/24 06:25:42;;;;;;;5.70;3.30;;;;;;;20.45;46.16;101854.66;106173;1280;25360;-76
2023/10/24 06:28:09;;;;;;;5.60;3.50;;;;;;;20.48;46.27;101852.61;106413;1266;22542;-73
2023/10/24 06:30:36;;;;;;;4.10;3.70;;;;;;;20.52;46.15;101853.31;106397;1273;22538;-71
2023/10/24 06:33:02;;;;;;;7.40;4.40;;;;;;;20.56;46.19;101853.64;106760;1261;23908;-73
2023/10/24 06:35:30;;;;;;;4.10;3.70;;;;;;;20.60;46.12;101855.58;106740;1267;25483;-69
2023/10/24 06:37:57;;;;;;;5.00;4.00;;;;;;;20.64;46.21;101863.48;106444;1264;24252;-72
2023/10/24 06:40:24;;;;;;;7.00;4.10;;;;;;;20.68;46.01;101870.91;106527;1273;25255;-69
2023/10/24 06:42:51;;;;;;;6.40;3.50;;;;;;;20.68;45.96;101870.86;106749;1270;25431;-71
2023/10/24 06:45:18;;;;;;;4.70;3.50;;;;;;;20.66;45.99;101870.10;106732;1264;25340;-75
2023/10/24 06:47:45;;;;;;;6.10;3.90;;;;;;;20.67;46.13;101870.05;106767;1263;24214;-73
2023/10/24 06:50:12;;;;;;;4.80;4.20;;;;;;;20.67;46.18;101873.39;106647;1264;22553;-69
2023/10/24 06:52:42;;;;;;;4.50;4.10;;;;;;;20.68;46.13;101876.16;106727;1268;25400;-74
2023/10/24 06:55:09;;;;;;;5.40;4.20;;;;;;;20.71;46.23;101878.18;106432;1274;25379;-69
2023/10/24 06:57:36;;;;;;;4.70;4.00;;;;;;;20.74;46.17;101876.41;106710;1268;25505;-72
2023/10/24 07:00:04;;;;;;;4.70;3.70;;;;;;;20.77;45.81;101875.56;106736;1260;25376;-71
2023/10/24 07:02:33;;;;;;;8.30;4.70;;;;;;;20.80;45.74;101877.70;106482;1261;24078;-73
2023/10/24 07:05:00;;;;;;;5.20;4.40;;;;;;;20.82;45.67;101879.23;106826;1261;25348;-71
2023/10/24 07:07:28;;;;;;;8.00;4.80;;;;;;;20.86;45.60;101884.15;106609;1264;25443;-77
2023/10/24 07:09:55;;;;;;;5.20;4.20;;;;;;;20.89;45.49;101882.80;106676;1257;25500;-72
2023/10/24 07:12:22;;;;;;;5.20;4.40;;;;;;;20.91;45.49;101885.31;106735;1269;22540;-72
2023/10/24 07:14:56;;;;;;;5.90;4.90;;;;;;;20.95;45.55;101885.64;106515;1273;25367;-69
2023/10/24 07:17:22;;;;;;;7.10;4.80;;;;;;;21.00;45.56;101887.52;106449;1261;25421;-69
2023/10/24 07:19:49;;;;;;;6.30;4.80;;;;;;;21.05;45.60;101889.61;106365;1263;25357;-70
2023/10/24 07:22:17;;;;;;;9.80;5.10;;;;;;;21.12;45.48;101893.21;106372;1261;25438;-71
2023/10/24 07:24:44;;;;;;;6.10;4.50;;;;;;;21.17;45.41;101890.48;106666;1264;25358;-71
2023/10/24 07:27:11;;;;;;;7.80;4.90;;;;;;;21.22;45.40;101889.73;106763;1261;22573;-68
2023/10/24 07:29:37;;;;;;;7.20;5.00;;;;;;;21.26;45.56;101887.07;106498;1264;24613;-69
2023/10/24 07:32:05;;;;;;;8.60;4.60;;;;;;;21.29;46.02;101885.68;106682;1271;25351;-69
2023/10/24 07:34:36;;;;;;;10.90;4.90;;;;;;;21.33;46.29;101884.59;106732;1263;25487;-70
2023/10/24 07:37:03;;;;;;;6.50;4.60;;;;;;;21.35;46.63;101880.99;106692;1260;22756;-72
2023/10/24 07:39:30;;;;;;;7.10;4.50;;;;;;;21.28;47.06;101875.65;106727;1263;25376;-70
2023/10/24 07:41:57;;;;;;;7.60;5.70;;;;;;;21.41;47.00;101868.66;106739;1264;25510;-74
2023/10/24 07:44:24;;;;;;;9.20;5.40;;;;;;;21.47;46.98;101864.84;106776;1264;25375;-69
2023/10/24 07:46:52;;;;;;;7.30;5.20;;;;;;;21.51;47.09;101861.45;106327;1279;25389;-70
2023/10/24 07:49:19;;;;;;;10.80;6.10;;;;;;;21.56;47.27;101853.77;106472;1277;25379;-75
2023/10/24 07:51:46;;;;;;;6.70;5.80;;;;;;;21.62;47.44;101850.84;106676;1257;25407;-72
2023/10/24 07:54:13;;;;;;;11.40;5.70;;;;;;;21.66;47.64;101853.95;106672;1258;25392;-69
2023/10/24 07:56:40;;;;;;;7.50;5.50;;;;;;;21.72;47.79;101857.39;106691;1264;25511;-73
2023/10/24 07:59:07;;;;;;;8.60;5.40;;;;;;;21.78;47.93;101859.73;106546;1273;25341;-70
2023/10/24 08:01:35;;;;;;;7.60;4.70;;;;;;;21.83;48.06;101857.54;106868;1264;22563;-69
2023/10/24 08:04:02;;;;;;;6.80;4.40;;;;;;;21.89;47.97;101852.09;106732;1269;25350;-71
2023/10/24 08:06:30;;;;;;;5.60;4.70;;;;;;;21.97;47.73;101848.88;106765;1263;25478;-72
2023/10/24 08:08:57;;;;;;;5.70;4.70;;;;;;;22.03;47.35;101845.89;106627;1273;24676;-70
2023/10/24 08:11:24;;;;;;;6.40;4.60;;;;;;;22.10;47.24;101839.19;106802;1263;25351;-75
2023/10/24 08:13:52;;;;;;;5.10;4.60;;;;;;;22.17;47.02;101845.15;106604;1264;25421;-72
2023/10/24 08:16:20;;;;;;;5.70;4.60;;;;;;;22.22;46.90;101846.14;106749;1264;25444;-70
2023/10/24 08:18:48;;;;;;;6.70;4.70;;;;;;;22.26;46.83;101845.92;106875;1271;25413;-70
2023/10/24 08:21:16;;;;;;;5.30;4.30;;;;;;;22.29;46.79;101847.02;106758;1256;25352;-70
2023/10/24 08:23:42;;;;;;;5.40;4.90;;;;;;;22.31;46.78;101851.09;106646;1261;25518;-69
2023/10/24 08:26:10;;;;;;;4.90;4.30;;;;;;;22.35;46.67;101855.52;106652;1266;25424;-69
2023/10/24 08:28:37;;;;;;;6.30;4.40;;;;;;;22.37;46.71;101864.04;106718;1264;25511;-71
2023/10/24 08:31:04;;;;;;;7.40;4.50;;;;;;;22.40;46.83;101865.13;106756;1263;25375;-69
2023/10/24 08:33:33;;;;;;;5.80;4.70;;;;;;;22.43;46.85;101862.29;106400;1267;25500;-69
2023/10/24 08:36:00;;;;;;;6.90;4.20;;;;;;;22.47;46.96;101860.48;106767;1261;25399;-69
2023/10/24 08:38:27;;;;;;;5.30;4.10;;;;;;;22.51;47.12;101862.38;106757;1257;25389;-72
2023/10/24 08:40:54;;;;;;;6.10;4.50;;;;;;;22.56;47.08;101855.79;106819;1276;22554;-76
2023/10/24 08:43:22;;;;;;;5.30;4.30;;;;;;;22.58;46.73;101854.60;106372;1273;25351;-73
2023/10/24 08:45:49;;;;;;;5.60;4.80;;;;;;;22.62;46.74;101851.75;106317;1267;25370;-68
2023/10/24 08:48:17;;;;;;;5.10;4.20;;;;;;;22.66;46.60;101851.00;106729;1272;25482;-73
2023/10/24 08:50:45;;;;;;;4.90;4.20;;;;;;;22.70;46.33;101849.77;106347;1259;25377;-70
2023/10/24 08:53:13;;;;;;;5.10;4.40;;;;;;;22.72;46.15;101849.12;106394;1274;25495;-70
2023/10/24 08:55:49;;;;;;;4.70;4.20;;;;;;;22.74;45.95;101840.16;106370;1264;26766;-69
2023/10/24 08:58:16;;;;;;;6.50;4.70;;;;;;;22.74;46.06;101831.86;106137;1266;25423;-70
2023/10/24 09:00:43;;;;;;;4.60;4.10;;;;;;;22.75;46.13;101829.84;106669;1257;25418;-69
2023/10/24 09:03:10;;;;;;;6.60;4.20;;;;;;;22.76;45.99;101832.62;106691;1264;25443;-69
2023/10/24 09:05:38;;;;;;;6.60;4.30;;;;;;;22.76;45.90;101829.40;106415;1274;22549;-69
2023/10/24 09:08:06;;;;;;;5.20;4.20;;;;;;;22.79;45.95;101823.58;106731;1270;25340;-69
2023/10/24 09:10:33;;;;;;;4.70;4.20;;;;;;;22.83;45.85;101822.46;106848;1273;25509;-69
2023/10/24 09:13:03;;;;;;;4.70;3.90;;;;;;;22.88;45.65;101823.05;106700;1257;25373;-71
2023/10/24 09:15:34;;;;;;;6.30;5.00;;;;;;;22.93;45.78;101821.54;106714;1260;25344;-70
2023/10/24 09:18:04;;;;;;;5.40;4.10;;;;;;;22.95;45.54;101816.31;106722;1264;25307;-70
2023/10/24 09:20:32;;;;;;;5.60;4.40;;;;;;;22.96;45.45;101811.08;106409;1270;24066;-72
2023/10/24 09:23:09;;;;;;;4.10;3.70;;;;;;;22.98;45.38;101803.37;106723;1261;25432;-71
2023/10/24 09:25:37;;;;;;;4.30;3.90;;;;;;;23.02;45.47;101804.20;106725;1263;25395;-72
2023/10/24 09:28:17;;;;;;;4.60;3.80;;;;;;;23.04;45.34;101803.23;106834;1273;25508;-69
2023/10/24 09:30:44;;;;;;;6.10;4.20;;;;;;;23.04;45.57;101798.42;106668;1262;22530;-70
2023/10/24 09:33:11;;;;;;;4.90;3.30;;;;;;;23.06;45.37;101797.64;106724;1272;25361;-74
2023/10/24 09:35:39;;;;;;;4.30;3.90;;;;;;;23.09;45.47;101793.39;106481;1260;25426;-72
2023/10/24 09:38:07;;;;;;;4.10;3.70;;;;;;;23.12;45.45;101793.36;106358;1272;24307;-71
2023/10/24 09:40:35;;;;;;;3.70;3.20;;;;;;;23.17;45.14;101788.83;106639;1256;24268;-70
2023/10/24 09:43:18;;;;;;;4.60;3.60;;;;;;;23.21;45.35;101785.26;106730;1260;25380;-72
2023/10/24 09:45:45;;;;;;;4.00;3.30;;;;;;;23.24;45.30;101783.27;106790;1266;22540;-71
2023/10/24 09:48:12;;;;;;;4.40;3.80;;;;;;;23.29;45.34;101782.48;106121;1278;25319;-74
2023/10/24 09:50:41;;;;;;;3.80;3.40;;;;;;;23.34;45.35;101779.36;106272;1267;25512;-74
2023/10/24 09:53:08;;;;;;;4.60;4.00;;;;;;;23.40;45.23;101780.05;106307;1263;25414;-69
2023/10/24 09:55:36;;;;;;;4.50;3.60;;;;;;;23.46;45.01;101778.83;106357;1267;25362;-70
2023/10/24 09:58:04;;;;;;;4.30;3.90;;;;;;;23.50;44.91;101774.73;106126;1280;25385;-70
2023/10/24 10:00:34;;;;;;;3.70;3.10;;;;;;;23.49;44.89;101770.48;106326;1264;24374;-70
2023/10/24 10:03:01;;;;;;;4.70;3.70;;;;;;;23.53;44.79;101763.69;106314;1266;25498;-74
2023/10/24 10:05:29;;;;;;;4.30;3.80;;;;;;;23.57;44.81;101759.05;106158;1267;24282;-77
2023/10/24 10:07:58;;;;;;;4.10;3.70;;;;;;;23.59;44.67;101756.77;106357;1277;25443;-72
2023/10/24 10:10:25;;;;;;;4.40;3.30;;;;;;;23.61;44.76;101751.91;106343;1278;22542;-70
2023/10/24 10:12:56;;;;;;;3.60;3.20;;;;;;;23.62;44.73;101749.89;106289;1267;25467;-74
2023/10/24 10:15:22;;;;;;;4.80;3.60;;;;;;;23.64;44.79;101756.67;106349;1267;24383;-69
2023/10/24 10:18:03;;;;;;;3.60;3.10;;;;;;;23.65;44.80;101763.49;106211;1264;25393;-70
2023/10/24 10:20:56;;;;;;;4.40;3.00;;;;;;;23.67;44.91;101754.86;106611;1273;25741;-73
2023/10/24 10:23:30;;;;;;;5.00;4.00;;;;;;;23.70;44.82;101746.00;106402;1272;25424;-69
2023/10/24 10:26:19;;;;;;;3.70;3.20;;;;;;;23.74;44.59;101744.85;106240;1272;22547;-74
2023/10/24 10:28:59;;;;;;;4.10;3.30;;;;;;;23.83;44.60;101742.16;106248;1272;25377;-73
2023/10/24 10:31:40;;;;;;;5.60;3.80;;;;;;;23.87;44.45;101741.73;106695;1272;22633;-72
2023/10/24 10:34:36;;;;;;;7.30;3.90;;;;;;;23.80;44.99;101740.77;106739;1273;25434;-71
2023/10/24 10:37:04;;;;;;;5.10;3.70;;;;;;;23.82;44.84;101741.52;106727;1265;25294;-69
2023/10/24 10:39:31;;;;;;;5.10;3.90;;;;;;;23.95;44.61;101740.56;106684;1259;24248;-75
2023/10/24 10:41:58;;;;;;;5.40;3.70;;;;;;;24.00;44.73;101738.27;106403;1281;25497;-70
2023/10/24 10:44:39;;;;;;;4.70;3.50;;;;;;;23.97;44.67;101735.30;106713;1263;24224;-70
2023/10/24 10:47:14;;;;;;;6.80;3.50;;;;;;;23.96;44.72;101736.23;106688;1273;25536;-70
2023/10/24 10:49:42;;;;;;;;;;;;;;;23.95;44.57;101732.90;106784;1273;25348;-71
2023/10/24 10:52:31;;;;;;;5.90;3.70;;;;;;;23.93;44.47;101737.47;106730;1257;25605;-70
2023/10/24 10:55:23;;;;;;;3.70;3.40;;;;;;;23.93;44.86;101737.66;106370;1265;24471;-71
2023/10/24 10:58:11;;;;;;;3.40;3.00;;;;;;;23.95;44.99;101727.08;106822;1273;25375;-70
2023/10/24 11:01:02;;;;;;;4.60;3.30;;;;;;;23.99;44.98;101719.36;106672;1257;22651;-70
2023/10/24 11:03:39;;;;;;;3.30;3.00;;;;;;;24.04;44.91;101710.24;106567;1259;25463;-70
2023/10/24 11:06:14;;;;;;;3.50;3.20;;;;;;;24.06;44.53;101706.90;106676;1273;22551;-72
2023/10/24 11:09:02;;;;;;;4.50;4.10;;;;;;;24.09;44.51;101704.64;106778;1262;25416;-71
2023/10/24 11:11:29;;;;;;;4.50;3.60;;;;;;;24.08;44.81;101702.70;106018;1269;22665;-76
2023/10/24 11:14:14;;;;;;;3.70;3.00;;;;;;;24.09;44.82;101708.14;106004;1283;25365;-72
2023/10/24 11:16:42;;;;;;;3.70;3.40;;;;;;;24.10;44.62;101711.77;106008;1275;25433;-70
2023/10/24 11:19:21;;;;;;;6.80;3.30;;;;;;;24.10;44.51;101708.75;105874;1267;23315;-77
2023/10/24 11:21:49;;;;;;;3.70;3.40;;;;;;;24.09;44.53;101702.11;105958;1270;25515;-72
2023/10/24 11:24:20;;;;;;;5.10;3.20;;;;;;;24.07;44.66;101695.33;105937;1267;22729;-72